Time;durP1;ratioP1;P1;durP2;ratioP2;P2;SDS_P1;SDS_P2;PMS_P1;PMS_P2;Temp;Humidity;BMP_temperature;BMP_pressure;BME280_temperature;BME280_humidity;BME280_pressure;Samples;Min_cycle;Max_cycle;Signal;HPM_P1;HPM_P2
2023/10/27 04:43:51;;;;;;;1999.90;999.90;;;;;;;;;;5185188;23;20058;-67
2023/10/27 04:46:17;;;;;;;1999.90;999.90;;;;;;;;;;5014207;28;20032;-65
2023/10/27 04:48:43;;;;;;;1999.90;999.90;;;;;;;;;;5014404;28;20794;-67
2023/10/27 04:51:09;;;;;;;1999.90;999.90;;;;;;;;;;5013002;28;20103;-67
2023/10/27 04:53:36;;;;;;;1999.90;999.90;;;;;;;;;;5013467;28;20022;-68
2023/10/27 04:56:02;;;;;;;1999.90;999.90;;;;;;;;;;5013652;28;20054;-66
2023/10/27 04:58:28;;;;;;;1999.90;999.90;;;;;;;;;;5013790;28;20029;-66
2023/10/27 05:00:54;;;;;;;1999.90;999.90;;;;;;;;;;5013700;28;20034;-65
2023/10/27 05:03:20;;;;;;;1999.90;999.90;;;;;;;;;;5013288;28;20026;-68
2023/10/27 05:05:46;;;;;;;1999.90;999.90;;;;;;;;;;5013711;28;20097;-66
2023/10/27 05:08:12;;;;;;;1999.90;999.90;;;;;;;;;;5013719;28;20087;-69
2023/10/27 05:10:40;;;;;;;1999.90;999.90;;;;;;;;;;5013922;28;20198;-68
2023/10/27 05:13:06;;;;;;;1999.90;999.90;;;;;;;;;;5013427;28;20090;-68
2023/10/27 05:15:32;;;;;;;1999.90;999.90;;;;;;;;;;5013757;28;20049;-66
2023/10/27 05:18:04;;;;;;;1999.90;999.90;;;;;;;;;;5013610;28;20402;-68
2023/10/27 05:20:31;;;;;;;1999.90;999.90;;;;;;;;;;5013715;28;20026;-69
2023/10/27 05:22:58;;;;;;;1999.90;999.90;;;;;;;;;;5012065;28;20581;-67
2023/10/27 05:25:25;;;;;;;1999.90;999.90;;;;;;;;;;5012388;28;20145;-65
2023/10/27 05:27:51;;;;;;;1999.90;999.90;;;;;;;;;;5013988;28;20029;-67
2023/10/27 05:30:17;;;;;;;1999.90;999.90;;;;;;;;;;5013484;28;20037;-66
2023/10/27 05:32:43;;;;;;;1999.90;999.90;;;;;;;;;;5013172;28;20112;-65
2023/10/27 05:35:09;;;;;;;1999.90;999.90;;;;;;;;;;5013384;28;20034;-64
2023/10/27 05:37:35;;;;;;;1999.90;999.90;;;;;;;;;;5013538;28;20030;-66
2023/10/27 05:40:01;;;;;;;1999.90;999.90;;;;;;;;;;5013409;28;20026;-65
2023/10/27 05:42:27;;;;;;;1999.90;999.90;;;;;;;;;;5013189;28;20092;-66
2023/10/27 05:44:53;;;;;;;1999.90;999.90;;;;;;;;;;4984860;28;20051;-66
2023/10/27 05:47:19;;;;;;;1999.90;999.90;;;;;;;;;;4974201;28;20130;-64
2023/10/27 05:49:45;;;;;;;1999.90;999.90;;;;;;;;;;4978093;28;20026;-67
2023/10/27 05:52:11;;;;;;;1999.90;999.90;;;;;;;;;;4993500;28;20039;-68
2023/10/27 05:54:37;;;;;;;1999.90;999.90;;;;;;;;;;4993515;28;20034;-69
2023/10/27 05:57:04;;;;;;;1999.90;999.90;;;;;;;;;;4993541;28;20026;-64
2023/10/27 05:59:30;;;;;;;1999.90;999.90;;;;;;;;;;4993727;28;20171;-66
2023/10/27 06:01:56;;;;;;;1999.90;999.90;;;;;;;;;;4993214;28;20023;-67
2023/10/27 06:04:22;;;;;;;1999.90;999.90;;;;;;;;;;4993192;28;20080;-65
2023/10/27 06:06:48;;;;;;;1999.90;999.90;;;;;;;;;;4993672;28;20037;-68
2023/10/27 06:09:14;;;;;;;1999.90;999.90;;;;;;;;;;5009160;28;20085;-69
2023/10/27 06:11:41;;;;;;;1999.90;999.90;;;;;;;;;;5011245;28;20538;-65
2023/10/27 06:14:07;;;;;;;1999.90;999.90;;;;;;;;;;5012728;28;20049;-68
2023/10/27 06:16:34;;;;;;;1999.90;999.90;;;;;;;;;;5012833;28;20030;-65
2023/10/27 06:19:00;;;;;;;1999.90;999.90;;;;;;;;;;5002703;28;20486;-65
2023/10/27 06:21:27;;;;;;;1999.90;999.90;;;;;;;;;;5003827;28;20347;-65
2023/10/27 06:23:53;;;;;;;1999.90;999.90;;;;;;;;;;4999104;28;20019;-65
2023/10/27 06:26:19;;;;;;;1999.90;999.90;;;;;;;;;;4999515;28;20375;-69
2023/10/27 06:28:46;;;;;;;1999.90;999.90;;;;;;;;;;5001459;28;20030;-65
2023/10/27 06:31:12;;;;;;;1999.90;999.90;;;;;;;;;;5002291;28;20038;-66
2023/10/27 06:33:38;;;;;;;1999.90;999.90;;;;;;;;;;5009670;28;20518;-66
2023/10/27 06:36:05;;;;;;;1999.90;999.90;;;;;;;;;;5003648;28;20482;-71
2023/10/27 06:38:31;;;;;;;1999.90;999.90;;;;;;;;;;5000902;28;20026;-65
2023/10/27 06:40:57;;;;;;;1999.90;999.90;;;;;;;;;;4997584;28;20029;-68
2023/10/27 06:43:23;;;;;;;1999.90;999.90;;;;;;;;;;5001640;28;20105;-65
2023/10/27 06:45:49;;;;;;;1999.90;999.90;;;;;;;;;;4997788;28;20070;-64
2023/10/27 06:48:15;;;;;;;1999.90;999.90;;;;;;;;;;5004638;28;20030;-65
2023/10/27 06:50:41;;;;;;;1999.90;999.90;;;;;;;;;;5006955;28;20044;-64
2023/10/27 06:53:07;;;;;;;1999.90;999.90;;;;;;;;;;4992520;28;20057;-65
2023/10/27 06:55:34;;;;;;;1999.90;999.90;;;;;;;;;;4991212;28;20037;-68
2023/10/27 06:58:00;;;;;;;1999.90;999.90;;;;;;;;;;4992208;28;20481;-65
2023/10/27 07:00:26;;;;;;;1999.90;999.90;;;;;;;;;;4994760;28;20116;-64
2023/10/27 07:02:52;;;;;;;1999.90;999.90;;;;;;;;;;5011722;28;20032;-64
2023/10/27 07:05:19;;;;;;;1999.90;999.90;;;;;;;;;;5004264;28;20377;-69
2023/10/27 07:07:45;;;;;;;1999.90;999.90;;;;;;;;;;4992207;28;20068;-63
2023/10/27 07:10:14;;;;;;;1999.90;999.90;;;;;;;;;;4992000;28;20030;-68
2023/10/27 07:12:40;;;;;;;1999.90;999.90;;;;;;;;;;4999750;28;20116;-62
2023/10/27 07:15:06;;;;;;;1999.90;999.90;;;;;;;;;;5011595;28;20029;-62
2023/10/27 07:17:32;;;;;;;1999.90;999.90;;;;;;;;;;5010573;28;20033;-66
2023/10/27 07:19:58;;;;;;;1999.90;999.90;;;;;;;;;;5011456;28;20037;-67
2023/10/27 07:22:24;;;;;;;1999.90;999.90;;;;;;;;;;4996677;28;20058;-65
2023/10/27 07:24:50;;;;;;;1999.90;999.90;;;;;;;;;;4991795;28;20474;-64
2023/10/27 07:27:16;;;;;;;1999.90;999.90;;;;;;;;;;4990620;28;20429;-69
2023/10/27 07:29:42;;;;;;;1999.90;999.90;;;;;;;;;;4990070;28;20040;-65
2023/10/27 07:32:08;;;;;;;1999.90;999.90;;;;;;;;;;4991588;28;20030;-65
2023/10/27 07:34:35;;;;;;;1999.90;999.90;;;;;;;;;;4991778;28;20023;-65
2023/10/27 07:37:04;;;;;;;1999.90;999.90;;;;;;;;;;5002273;28;20101;-68
2023/10/27 07:39:30;;;;;;;1999.90;999.90;;;;;;;;;;4999292;28;20089;-72
2023/10/27 07:41:56;;;;;;;1999.90;999.90;;;;;;;;;;5004016;28;20140;-64
2023/10/27 07:44:22;;;;;;;1999.90;999.90;;;;;;;;;;5000213;28;20117;-65
2023/10/27 07:46:48;;;;;;;1999.90;999.90;;;;;;;;;;4991454;28;20101;-65
2023/10/27 07:49:14;;;;;;;1999.90;999.90;;;;;;;;;;5000733;28;20064;-65
2023/10/27 07:51:40;;;;;;;1999.90;999.90;;;;;;;;;;4999824;28;20333;-66
2023/10/27 07:54:07;;;;;;;1999.90;999.90;;;;;;;;;;4982049;28;20335;-64
2023/10/27 07:56:33;;;;;;;1999.90;999.90;;;;;;;;;;4984377;28;20030;-62
2023/10/27 07:58:59;;;;;;;1999.90;999.90;;;;;;;;;;4980421;28;20025;-68
2023/10/27 08:01:25;;;;;;;1999.90;999.90;;;;;;;;;;4980808;28;20034;-70
2023/10/27 08:03:52;;;;;;;1999.90;999.90;;;;;;;;;;4979853;28;20027;-64
2023/10/27 08:06:18;;;;;;;1999.90;999.90;;;;;;;;;;4980147;28;20027;-64
2023/10/27 08:08:44;;;;;;;1999.90;999.90;;;;;;;;;;4980843;28;20022;-65
2023/10/27 08:11:16;;;;;;;1999.90;999.90;;;;;;;;;;4981874;28;20402;-65
2023/10/27 08:13:42;;;;;;;1999.90;999.90;;;;;;;;;;4981301;28;20269;-66
2023/10/27 08:16:08;;;;;;;1999.90;999.90;;;;;;;;;;4978789;28;20031;-64
2023/10/27 08:18:34;;;;;;;1999.90;999.90;;;;;;;;;;4983341;28;20035;-64
2023/10/27 08:21:00;;;;;;;1999.90;999.90;;;;;;;;;;4980630;28;20153;-67
2023/10/27 08:23:26;;;;;;;1999.90;999.90;;;;;;;;;;4979776;28;20049;-64
2023/10/27 08:25:53;;;;;;;1999.90;999.90;;;;;;;;;;4979510;28;20035;-65
2023/10/27 08:28:22;;;;;;;1999.90;999.90;;;;;;;;;;4980928;28;20022;-66
2023/10/27 08:30:48;;;;;;;1999.90;999.90;;;;;;;;;;4981746;28;20034;-70
2023/10/27 08:33:15;;;;;;;1999.90;999.90;;;;;;;;;;4979740;28;20324;-67
2023/10/27 08:35:41;;;;;;;1999.90;999.90;;;;;;;;;;4980728;28;20026;-64
2023/10/27 08:38:07;;;;;;;1999.90;999.90;;;;;;;;;;4981270;28;20019;-65
2023/10/27 08:40:34;;;;;;;1999.90;999.90;;;;;;;;;;4979349;28;20046;-66
2023/10/27 08:43:00;;;;;;;1999.90;999.90;;;;;;;;;;4980579;28;20037;-64
2023/10/27 08:45:27;;;;;;;1999.90;999.90;;;;;;;;;;4980637;28;20050;-64
2023/10/27 08:47:54;;;;;;;1999.90;999.90;;;;;;;;;;4980096;28;20023;-70
2023/10/27 08:50:20;;;;;;;1999.90;999.90;;;;;;;;;;4971086;28;20049;-65
2023/10/27 08:52:48;;;;;;;1999.90;999.90;;;;;;;;;;4971102;28;20031;-67
2023/10/27 08:55:15;;;;;;;1999.90;999.90;;;;;;;;;;4970904;28;20534;-65
2023/10/27 08:57:41;;;;;;;1999.90;999.90;;;;;;;;;;4971049;28;20041;-69
2023/10/27 09:00:07;;;;;;;1999.90;999.90;;;;;;;;;;4972871;28;20051;-67
2023/10/27 09:02:34;;;;;;;1999.90;999.90;;;;;;;;;;4987281;28;20035;-66
2023/10/27 09:05:01;;;;;;;1999.90;999.90;;;;;;;;;;4983927;28;20433;-65
2023/10/27 09:07:27;;;;;;;1999.90;999.90;;;;;;;;;;4981734;28;20022;-69
2023/10/27 09:09:53;;;;;;;1999.90;999.90;;;;;;;;;;4979675;28;20073;-65
2023/10/27 09:12:27;;;;;;;1999.90;999.90;;;;;;;;;;4980660;28;20045;-68
2023/10/27 09:15:09;;;;;;;1999.90;999.90;;;;;;;;;;4982580;28;20137;-65
2023/10/27 09:17:51;;;;;;;1999.90;999.90;;;;;;;;;;4981801;28;20549;-62
2023/10/27 09:20:18;;;;;;;1999.90;999.90;;;;;;;;;;4984028;28;20042;-67
2023/10/27 09:22:56;;;;;;;1999.90;999.90;;;;;;;;;;4982404;28;20058;-65
2023/10/27 09:25:28;;;;;;;1999.90;999.90;;;;;;;;;;4978038;28;20030;-62
2023/10/27 09:27:54;;;;;;;1999.90;999.90;;;;;;;;;;4983548;28;20544;-68
2023/10/27 09:30:30;;;;;;;1999.90;999.90;;;;;;;;;;4983504;28;20046;-63
2023/10/27 09:33:12;;;;;;;1999.90;999.90;;;;;;;;;;4982258;28;20026;-66
2023/10/27 09:35:38;;;;;;;1999.90;999.90;;;;;;;;;;4982828;28;20069;-64
2023/10/27 09:38:04;;;;;;;1999.90;999.90;;;;;;;;;;4982401;28;20119;-66
2023/10/27 09:40:31;;;;;;;1999.90;999.90;;;;;;;;;;4983375;28;20022;-66
2023/10/27 09:43:00;;;;;;;1999.90;999.90;;;;;;;;;;4983045;28;20035;-65
2023/10/27 09:45:28;;;;;;;1999.90;999.90;;;;;;;;;;4981308;28;20039;-64
2023/10/27 09:47:59;;;;;;;1999.90;999.90;;;;;;;;;;4984605;28;20033;-68
2023/10/27 09:50:25;;;;;;;1999.90;999.90;;;;;;;;;;4982101;28;20035;-64
2023/10/27 09:52:51;;;;;;;1999.90;999.90;;;;;;;;;;4983715;28;20398;-64
2023/10/27 09:55:19;;;;;;;1999.90;999.90;;;;;;;;;;4982798;28;20027;-64
2023/10/27 09:57:45;;;;;;;1999.90;999.90;;;;;;;;;;4982055;28;20027;-65
2023/10/27 10:00:13;;;;;;;1999.90;999.90;;;;;;;;;;4984362;28;20022;-66
2023/10/27 10:02:41;;;;;;;1999.90;999.90;;;;;;;;;;4982632;28;20154;-67
2023/10/27 10:05:09;;;;;;;1999.90;999.90;;;;;;;;;;4981757;28;20019;-64
2023/10/27 10:07:52;;;;;;;1999.90;999.90;;;;;;;;;;4982823;28;20355;-65
2023/10/27 10:10:18;;;;;;;1999.90;999.90;;;;;;;;;;4982542;28;20046;-64
2023/10/27 10:13:04;;;;;;;1999.90;999.90;;;;;;;;;;4981995;28;20053;-64
2023/10/27 10:15:34;;;;;;;1999.90;999.90;;;;;;;;;;4986638;28;20018;-64
2023/10/27 10:18:00;;;;;;;1999.90;999.90;;;;;;;;;;4992821;28;20026;-65
2023/10/27 10:20:43;;;;;;;1999.90;999.90;;;;;;;;;;4993087;28;20101;-63
2023/10/27 10:23:09;;;;;;;1999.90;999.90;;;;;;;;;;4991666;28;20022;-64
2023/10/27 10:25:36;;;;;;;1999.90;999.90;;;;;;;;;;4991916;28;20026;-65
2023/10/27 10:28:11;;;;;;;1999.90;999.90;;;;;;;;;;4992512;28;20023;-65
2023/10/27 10:30:38;;;;;;;1999.90;999.90;;;;;;;;;;4992397;28;20034;-64
2023/10/27 10:33:16;;;;;;;1999.90;999.90;;;;;;;;;;4992294;28;20478;-65
2023/10/27 10:35:43;;;;;;;1999.90;999.90;;;;;;;;;;4992296;28;20536;-66
2023/10/27 10:38:24;;;;;;;1999.90;999.90;;;;;;;;;;4992457;28;20026;-65
2023/10/27 10:40:51;;;;;;;1999.90;999.90;;;;;;;;;;4992428;28;20031;-65
2023/10/27 10:43:23;;;;;;;1999.90;999.90;;;;;;;;;;4991754;28;20111;-63
2023/10/27 10:45:53;;;;;;;1999.90;999.90;;;;;;;;;;4990470;28;20088;-64
2023/10/27 10:48:20;;;;;;;1999.90;999.90;;;;;;;;;;4982487;28;20390;-64
2023/10/27 10:50:46;;;;;;;1999.90;999.90;;;;;;;;;;4980848;28;20046;-64
2023/10/27 10:53:16;;;;;;;1999.90;999.90;;;;;;;;;;4982405;28;20371;-64
2023/10/27 10:55:44;;;;;;;1999.90;999.90;;;;;;;;;;4982084;28;20062;-64
2023/10/27 10:58:10;;;;;;;1999.90;999.90;;;;;;;;;;4981374;28;20438;-63
2023/10/27 11:00:36;;;;;;;1999.90;999.90;;;;;;;;;;4979686;28;20019;-63
2023/10/27 11:03:06;;;;;;;1999.90;999.90;;;;;;;;;;4972345;28;20068;-64
2023/10/27 11:05:32;;;;;;;1999.90;999.90;;;;;;;;;;4972414;28;20031;-64
2023/10/27 11:07:58;;;;;;;1999.90;999.90;;;;;;;;;;4972653;28;20026;-63
2023/10/27 11:10:25;;;;;;;1999.90;999.90;;;;;;;;;;4971950;28;20472;-65
2023/10/27 11:12:52;;;;;;;1999.90;999.90;;;;;;;;;;4972544;28;20039;-63
2023/10/27 11:15:37;;;;;;;1999.90;999.90;;;;;;;;;;4972549;28;20027;-63
2023/10/27 11:18:06;;;;;;;1999.90;999.90;;;;;;;;;;4971790;28;20518;-63
2023/10/27 11:20:35;;;;;;;1999.90;999.90;;;;;;;;;;4972406;28;20037;-64
2023/10/27 11:23:07;;;;;;;1999.90;999.90;;;;;;;;;;4971943;28;20027;-64
2023/10/27 11:25:33;;;;;;;;;;;;;;;;;;4972247;28;20026;-63
2023/10/27 11:28:18;;;;;;;1999.90;999.90;;;;;;;;;;4972072;28;19956;-63
2023/10/27 11:30:44;;;;;;;1999.90;999.90;;;;;;;;;;4981422;28;20042;-64
2023/10/27 11:33:10;;;;;;;1999.90;999.90;;;;;;;;;;4990936;28;20422;-64
2023/10/27 11:35:45;;;;;;;1999.90;999.90;;;;;;;;;;4991204;28;20027;-63
2023/10/27 11:38:12;;;;;;;1999.90;999.90;;;;;;;;;;4991391;28;20214;-63
2023/10/27 11:40:38;;;;;;;1999.90;999.90;;;;;;;;;;4991313;28;20033;-64
2023/10/27 11:43:04;;;;;;;1999.90;999.90;;;;;;;;;;4991199;28;20042;-63
2023/10/27 11:45:31;;;;;;;1999.90;999.90;;;;;;;;;;4990900;28;20081;-63
2023/10/27 11:47:57;;;;;;;1999.90;999.90;;;;;;;;;;4990567;28;20037;-64
2023/10/27 11:50:23;;;;;;;1999.90;999.90;;;;;;;;;;4991105;28;20022;-63
2023/10/27 11:52:49;;;;;;;1999.90;999.90;;;;;;;;;;4991077;28;20036;-66
2023/10/27 11:55:15;;;;;;;1999.90;999.90;;;;;;;;;;4990340;28;20034;-64
2023/10/27 11:57:41;;;;;;;1999.90;999.90;;;;;;;;;;4990685;28;20022;-64
2023/10/27 12:00:11;;;;;;;1999.90;999.90;;;;;;;;;;4990902;28;20402;-64
2023/10/27 12:02:37;;;;;;;1999.90;999.90;;;;;;;;;;4990615;28;20022;-64
2023/10/27 12:05:03;;;;;;;1999.90;999.90;;;;;;;;;;4993184;28;20062;-64
2023/10/27 12:07:29;;;;;;;1999.90;999.90;;;;;;;;;;5010698;28;20033;-64
2023/10/27 12:09:55;;;;;;;1999.90;999.90;;;;;;;;;;5010129;28;20026;-64
2023/10/27 12:12:23;;;;;;;1999.90;999.90;;;;;;;;;;5010931;28;20121;-65
2023/10/27 12:14:49;;;;;;;1999.90;999.90;;;;;;;;;;5009474;28;20409;-65
2023/10/27 12:17:16;;;;;;;1999.90;999.90;;;;;;;;;;5010014;28;20032;-65
2023/10/27 12:19:42;;;;;;;1999.90;999.90;;;;;;;;;;5010780;28;20030;-66
2023/10/27 12:22:10;;;;;;;1999.90;999.90;;;;;;;;;;5010758;28;20034;-65
2023/10/27 12:24:36;;;;;;;1999.90;999.90;;;;;;;;;;5010696;28;20022;-64
2023/10/27 12:27:04;;;;;;;1999.90;999.90;;;;;;;;;;4986740;28;20030;-66
2023/10/27 12:29:31;;;;;;;1999.90;999.90;;;;;;;;;;4988536;28;20049;-64
2023/10/27 12:31:57;;;;;;;1999.90;999.90;;;;;;;;;;4977753;28;20038;-65
2023/10/27 12:34:23;;;;;;;1999.90;999.90;;;;;;;;;;4981659;28;20033;-65
2023/10/27 12:36:49;;;;;;;1999.90;999.90;;;;;;;;;;4981956;28;20030;-66
2023/10/27 12:39:15;;;;;;;1999.90;999.90;;;;;;;;;;4982316;28;20029;-65
2023/10/27 12:41:42;;;;;;;1999.90;999.90;;;;;;;;;;4986279;28;20038;-65
2023/10/27 12:44:08;;;;;;;1999.90;999.90;;;;;;;;;;4979227;28;20097;-65
2023/10/27 12:46:34;;;;;;;1999.90;999.90;;;;;;;;;;4983891;28;20134;-66
2023/10/27 12:49:01;;;;;;;1999.90;999.90;;;;;;;;;;4994702;28;20030;-65
2023/10/27 12:51:27;;;;;;;1999.90;999.90;;;;;;;;;;4994364;28;20042;-65
2023/10/27 12:53:54;;;;;;;1999.90;999.90;;;;;;;;;;4994405;28;20065;-65
2023/10/27 12:56:20;;;;;;;1999.90;999.90;;;;;;;;;;4993226;28;20506;-65
2023/10/27 12:58:46;;;;;;;1999.90;999.90;;;;;;;;;;4994233;28;20033;-67
2023/10/27 13:01:12;;;;;;;1999.90;999.90;;;;;;;;;;4994078;28;20042;-64
2023/10/27 13:03:39;;;;;;;1999.90;999.90;;;;;;;;;;4993428;28;20030;-67
2023/10/27 13:06:05;;;;;;;1999.90;999.90;;;;;;;;;;4979553;28;20022;-68
2023/10/27 13:08:32;;;;;;;1999.90;999.90;;;;;;;;;;4991795;28;20080;-66
2023/10/27 13:11:05;;;;;;;1999.90;999.90;;;;;;;;;;4989971;28;20034;-66
2023/10/27 13:13:32;;;;;;;1999.90;999.90;;;;;;;;;;4994144;28;20041;-65
2023/10/27 13:15:58;;;;;;;1999.90;999.90;;;;;;;;;;4993992;28;20378;-64
2023/10/27 13:18:25;;;;;;;1999.90;999.90;;;;;;;;;;4993878;28;20028;-64
2023/10/27 13:20:51;;;;;;;1999.90;999.90;;;;;;;;;;4979759;28;20045;-65
2023/10/27 13:23:17;;;;;;;1999.90;999.90;;;;;;;;;;4977369;28;20110;-66
2023/10/27 13:25:45;;;;;;;1999.90;999.90;;;;;;;;;;4998003;28;20033;-66
2023/10/27 13:28:11;;;;;;;1999.90;999.90;;;;;;;;;;4989705;28;20023;-65
2023/10/27 13:30:37;;;;;;;1999.90;999.90;;;;;;;;;;4984892;28;20429;-66
2023/10/27 13:33:03;;;;;;;1999.90;999.90;;;;;;;;;;4983525;28;20471;-64
2023/10/27 13:35:29;;;;;;;1999.90;999.90;;;;;;;;;;4988029;28;20023;-63
2023/10/27 13:38:04;;;;;;;1999.90;999.90;;;;;;;;;;4993569;28;20097;-64
2023/10/27 13:40:34;;;;;;;1999.90;999.90;;;;;;;;;;4974070;28;20054;-66
2023/10/27 13:43:00;;;;;;;1999.90;999.90;;;;;;;;;;4974300;28;20027;-65
2023/10/27 13:45:26;;;;;;;1999.90;999.90;;;;;;;;;;4973867;28;20498;-64
2023/10/27 13:47:52;;;;;;;1999.90;999.90;;;;;;;;;;4974000;28;20118;-63
2023/10/27 13:50:20;;;;;;;1999.90;999.90;;;;;;;;;;4973384;28;20093;-64
2023/10/27 13:52:46;;;;;;;1999.90;999.90;;;;;;;;;;4974379;28;20034;-64
2023/10/27 13:55:12;;;;;;;1999.90;999.90;;;;;;;;;;4974384;28;20042;-64
2023/10/27 13:57:38;;;;;;;1999.90;999.90;;;;;;;;;;4988635;28;20026;-64
2023/10/27 14:00:09;;;;;;;1999.90;999.90;;;;;;;;;;4996003;28;20051;-66
2023/10/27 14:02:35;;;;;;;1999.90;999.90;;;;;;;;;;4996182;28;20554;-66
2023/10/27 14:05:02;;;;;;;1999.90;999.90;;;;;;;;;;4998774;28;20093;-65
2023/10/27 14:07:28;;;;;;;1999.90;999.90;;;;;;;;;;4996587;28;20026;-66
2023/10/27 14:09:54;;;;;;;1999.90;999.90;;;;;;;;;;5002209;28;20019;-68
2023/10/27 14:12:20;;;;;;;1999.90;999.90;;;;;;;;;;5002386;28;20030;-65
2023/10/27 14:14:46;;;;;;;1999.90;999.90;;;;;;;;;;5008546;28;20057;-64
2023/10/27 14:17:13;;;;;;;1999.90;999.90;;;;;;;;;;4996366;28;20035;-66
2023/10/27 14:19:39;;;;;;;1999.90;999.90;;;;;;;;;;4998373;28;20022;-65
2023/10/27 14:22:05;;;;;;;1999.90;999.90;;;;;;;;;;4993307;28;20026;-66
2023/10/27 14:24:33;;;;;;;1999.90;999.90;;;;;;;;;;4993109;28;20080;-66
2023/10/27 14:26:59;;;;;;;1999.90;999.90;;;;;;;;;;4992980;28;20500;-68
2023/10/27 14:29:25;;;;;;;1999.90;999.90;;;;;;;;;;4993143;28;20398;-69
2023/10/27 14:31:51;;;;;;;1999.90;999.90;;;;;;;;;;4992690;28;20611;-66
2023/10/27 14:34:17;;;;;;;1999.90;999.90;;;;;;;;;;4992703;28;20076;-66
2023/10/27 14:36:43;;;;;;;1999.90;999.90;;;;;;;;;;4992411;28;20462;-65
2023/10/27 14:39:13;;;;;;;1999.90;999.90;;;;;;;;;;4992981;28;20068;-68
2023/10/27 14:41:40;;;;;;;1999.90;999.90;;;;;;;;;;4992827;28;20030;-68
2023/10/27 14:44:06;;;;;;;1999.90;999.90;;;;;;;;;;4992332;28;20145;-64
2023/10/27 14:46:33;;;;;;;1999.90;999.90;;;;;;;;;;4992986;28;20034;-67
2023/10/27 14:48:59;;;;;;;1999.90;999.90;;;;;;;;;;4992716;28;20037;-64
2023/10/27 14:51:26;;;;;;;1999.90;999.90;;;;;;;;;;4992859;28;20470;-69
2023/10/27 14:53:53;;;;;;;1999.90;999.90;;;;;;;;;;4992804;28;20037;-65
2023/10/27 14:56:19;;;;;;;1999.90;999.90;;;;;;;;;;4992657;28;20538;-64
2023/10/27 14:58:45;;;;;;;1999.90;999.90;;;;;;;;;;4992563;28;20533;-68
2023/10/27 15:01:11;;;;;;;1999.90;999.90;;;;;;;;;;4992342;28;20058;-65
2023/10/27 15:03:38;;;;;;;1999.90;999.90;;;;;;;;;;4992018;28;20019;-64
2023/10/27 15:06:04;;;;;;;1999.90;999.90;;;;;;;;;;4992383;28;20031;-63
2023/10/27 15:08:31;;;;;;;1999.90;999.90;;;;;;;;;;4992391;28;20057;-64
2023/10/27 15:10:57;;;;;;;1999.90;999.90;;;;;;;;;;4991885;28;20049;-64
2023/10/27 15:13:24;;;;;;;1999.90;999.90;;;;;;;;;;4992180;28;20030;-65
2023/10/27 15:16:01;;;;;;;1999.90;999.90;;;;;;;;;;4992674;28;20030;-63
2023/10/27 15:18:28;;;;;;;1999.90;999.90;;;;;;;;;;4991998;28;20533;-64
2023/10/27 15:20:58;;;;;;;1999.90;999.90;;;;;;;;;;4992004;28;20026;-64
2023/10/27 15:23:24;;;;;;;1999.90;999.90;;;;;;;;;;4991837;28;20026;-64
2023/10/27 15:25:50;;;;;;;1999.90;999.90;;;;;;;;;;4991562;28;20097;-64
2023/10/27 15:28:16;;;;;;;1999.90;999.90;;;;;;;;;;4991772;28;20054;-64
2023/10/27 15:30:42;;;;;;;1999.90;999.90;;;;;;;;;;4991727;28;20026;-64
2023/10/27 15:33:08;;;;;;;1999.90;999.90;;;;;;;;;;4991631;28;20034;-66
2023/10/27 15:35:36;;;;;;;1999.90;999.90;;;;;;;;;;4991674;28;20030;-64
2023/10/27 15:38:02;;;;;;;1999.90;999.90;;;;;;;;;;4991411;28;20035;-63
2023/10/27 15:40:29;;;;;;;1999.90;999.90;;;;;;;;;;4991673;28;20496;-64
2023/10/27 15:42:57;;;;;;;1999.90;999.90;;;;;;;;;;4991617;28;20030;-68
2023/10/27 15:45:23;;;;;;;1999.90;999.90;;;;;;;;;;4991441;28;20065;-68
2023/10/27 15:47:49;;;;;;;1999.90;999.90;;;;;;;;;;4991168;28;20049;-64
2023/10/27 15:50:15;;;;;;;1999.90;999.90;;;;;;;;;;4991109;28;20161;-65
2023/10/27 15:52:42;;;;;;;1999.90;999.90;;;;;;;;;;4990932;28;20077;-68
2023/10/27 15:55:09;;;;;;;1999.90;999.90;;;;;;;;;;4991426;28;20035;-70
2023/10/27 15:57:35;;;;;;;1999.90;999.90;;;;;;;;;;4998223;28;20469;-69
2023/10/27 16:00:01;;;;;;;1999.90;999.90;;;;;;;;;;4999030;28;20080;-66
2023/10/27 16:02:28;;;;;;;1999.90;999.90;;;;;;;;;;4998661;28;20025;-69
2023/10/27 16:04:54;;;;;;;1999.90;999.90;;;;;;;;;;5003269;28;20101;-70
2023/10/27 16:07:20;;;;;;;1999.90;999.90;;;;;;;;;;5009710;28;20110;-69
2023/10/27 16:09:46;;;;;;;1999.90;999.90;;;;;;;;;;5001986;28;20018;-69
2023/10/27 16:12:13;;;;;;;1999.90;999.90;;;;;;;;;;5007962;28;20542;-66
2023/10/27 16:14:39;;;;;;;1999.90;999.90;;;;;;;;;;5010098;28;20044;-69
2023/10/27 16:17:06;;;;;;;1999.90;999.90;;;;;;;;;;5007531;28;20073;-70
2023/10/27 16:19:32;;;;;;;1999.90;999.90;;;;;;;;;;5010003;28;20564;-69
2023/10/27 16:21:58;;;;;;;1999.90;999.90;;;;;;;;;;5008519;28;20052;-66
2023/10/27 16:24:24;;;;;;;1999.90;999.90;;;;;;;;;;4993889;28;20026;-70
2023/10/27 16:26:50;;;;;;;1999.90;999.90;;;;;;;;;;4992960;28;20117;-70
2023/10/27 16:29:16;;;;;;;1999.90;999.90;;;;;;;;;;4998948;28;20392;-69
2023/10/27 16:31:43;;;;;;;1999.90;999.90;;;;;;;;;;5001958;28;20030;-69
2023/10/27 16:34:11;;;;;;;1999.90;999.90;;;;;;;;;;4994276;28;20026;-71
2023/10/27 16:36:37;;;;;;;1999.90;999.90;;;;;;;;;;4994458;28;20034;-72
2023/10/27 16:39:04;;;;;;;1999.90;999.90;;;;;;;;;;4997256;28;20478;-68
2023/10/27 16:41:30;;;;;;;1999.90;999.90;;;;;;;;;;4997447;28;20065;-68
2023/10/27 16:43:56;;;;;;;1999.90;999.90;;;;;;;;;;4999747;28;20050;-68
2023/10/27 16:46:23;;;;;;;1999.90;999.90;;;;;;;;;;4994762;28;20030;-70
2023/10/27 16:48:49;;;;;;;1999.90;999.90;;;;;;;;;;4994577;28;20034;-68
2023/10/27 16:51:17;;;;;;;1999.90;999.90;;;;;;;;;;4994390;28;20042;-68
2023/10/27 16:53:43;;;;;;;1999.90;999.90;;;;;;;;;;4999922;28;20131;-68
2023/10/27 16:56:11;;;;;;;1999.90;999.90;;;;;;;;;;5001650;28;20029;-68
2023/10/27 16:58:40;;;;;;;1999.90;999.90;;;;;;;;;;4998084;28;20378;-72
2023/10/27 17:01:06;;;;;;;1999.90;999.90;;;;;;;;;;5004507;28;20073;-70
2023/10/27 17:03:36;;;;;;;1999.90;999.90;;;;;;;;;;5002421;28;20048;-70
2023/10/27 17:06:05;;;;;;;1999.90;999.90;;;;;;;;;;5003336;28;20069;-67
2023/10/27 17:08:31;;;;;;;1999.90;999.90;;;;;;;;;;5005215;28;20030;-70
2023/10/27 17:10:59;;;;;;;1999.90;999.90;;;;;;;;;;4996794;28;20371;-72
2023/10/27 17:13:31;;;;;;;1999.90;999.90;;;;;;;;;;4996837;28;20038;-68
2023/10/27 19:52:47;;;;;;;1999.90;999.90;;;;;;;;;;5144254;23;20055;-70
2023/10/27 19:55:15;;;;;;;1999.90;999.90;;;;;;;;;;4933716;29;20031;-71
2023/10/27 19:57:42;;;;;;;1999.90;999.90;;;;;;;;;;4933558;29;20035;-70
2023/10/27 20:00:10;;;;;;;1999.90;999.90;;;;;;;;;;4932393;29;20471;-70
2023/10/27 20:02:36;;;;;;;1999.90;999.90;;;;;;;;;;4934029;29;20028;-71
2023/10/27 20:05:02;;;;;;;1999.90;999.90;;;;;;;;;;4933762;29;20114;-72
2023/10/27 20:07:28;;;;;;;1999.90;999.90;;;;;;;;;;4933541;29;20024;-75
2023/10/27 20:09:54;;;;;;;1999.90;999.90;;;;;;;;;;4933822;29;20035;-72
2023/10/27 20:12:20;;;;;;;1999.90;999.90;;;;;;;;;;4933725;29;20503;-72
2023/10/27 20:14:47;;;;;;;1999.90;999.90;;;;;;;;;;4932443;29;20048;-74
2023/10/27 20:17:14;;;;;;;1999.90;999.90;;;;;;;;;;4933696;29;20083;-72
2023/10/27 20:19:40;;;;;;;1999.90;999.90;;;;;;;;;;4933835;29;20111;-71
2023/10/27 20:22:06;;;;;;;1999.90;999.90;;;;;;;;;;4933337;29;20119;-75
2023/10/27 20:24:32;;;;;;;1999.90;999.90;;;;;;;;;;4933539;29;20137;-70
2023/10/27 20:26:59;;;;;;;1999.90;999.90;;;;;;;;;;4932298;29;20039;-75
2023/10/27 20:29:25;;;;;;;1999.90;999.90;;;;;;;;;;4933340;29;20036;-73
2023/10/27 20:31:52;;;;;;;1999.90;999.90;;;;;;;;;;4933226;29;20064;-74
2023/10/27 20:34:18;;;;;;;1999.90;999.90;;;;;;;;;;4933655;29;20115;-71
2023/10/27 20:36:45;;;;;;;1999.90;999.90;;;;;;;;;;4933479;29;20035;-74
2023/10/27 20:39:11;;;;;;;1999.90;999.90;;;;;;;;;;4931995;29;20032;-71
2023/10/27 20:41:37;;;;;;;1999.90;999.90;;;;;;;;;;4933449;29;20050;-72
2023/10/27 20:44:03;;;;;;;1999.90;999.90;;;;;;;;;;4933510;29;20027;-75
2023/10/27 20:46:29;;;;;;;1999.90;999.90;;;;;;;;;;4935811;29;20380;-73
2023/10/27 20:48:56;;;;;;;1999.90;999.90;;;;;;;;;;4932063;29;20454;-73
2023/10/27 20:51:22;;;;;;;1999.90;999.90;;;;;;;;;;4933724;29;20042;-70
2023/10/27 20:53:48;;;;;;;1999.90;999.90;;;;;;;;;;4932719;29;20048;-73
2023/10/27 20:56:15;;;;;;;1999.90;999.90;;;;;;;;;;4933460;29;20028;-74
2023/10/27 20:58:41;;;;;;;1999.90;999.90;;;;;;;;;;4933149;29;20028;-70
2023/10/27 21:01:08;;;;;;;1999.90;999.90;;;;;;;;;;4933335;29;20111;-71